Time;durP1;ratioP1;P1;durP2;ratioP2;P2;SDS_P1;SDS_P2;PMS_P1;PMS_P2;Temp;Humidity;BMP_temperature;BMP_pressure;BME280_temperature;BME280_humidity;BME280_pressure;Samples;Min_cycle;Max_cycle;Signal;HPM_P1;HPM_P2
2021/08/20 00:01:15;;;;;;;7.17;3.10;;;27.20;99.90;;;;;;5014777;28;20218;-91
2021/08/20 00:04:11;;;;;;;5.83;3.33;;;27.60;99.90;;;;;;5017940;28;20724;-91
2021/08/20 00:06:43;;;;;;;4.80;3.47;;;28.00;99.90;;;;;;5029926;28;20232;-92
2021/08/20 00:09:18;;;;;;;6.23;3.10;;;27.80;99.90;;;;;;5014847;28;20205;-91
2021/08/20 00:14:43;;;;;;;4.73;3.13;;;27.90;99.90;;;;;;5030089;28;20217;-92
2021/08/20 00:17:14;;;;;;;6.10;3.30;;;27.90;99.90;;;;;;5012604;28;20261;-92
2021/08/20 00:19:46;;;;;;;4.27;3.10;;;27.80;99.90;;;;;;5013889;28;20218;-92
2021/08/20 00:22:18;;;;;;;5.40;3.27;;;27.80;99.90;;;;;;5015872;28;20207;-92
2021/08/20 00:24:49;;;;;;;4.60;3.10;;;28.00;99.90;;;;;;5005517;28;20211;-92
2021/08/20 00:27:23;;;;;;;6.53;3.37;;;28.00;99.90;;;;;;5005010;28;20233;-93
2021/08/20 00:29:55;;;;;;;4.47;3.03;;;28.00;99.90;;;;;;5009662;28;20214;-93
2021/08/20 00:32:27;;;;;;;5.53;3.17;;;27.70;99.90;;;;;;4994594;28;20233;-92
2021/08/20 00:34:58;;;;;;;4.83;3.03;;;27.70;99.90;;;;;;5000475;28;20220;-92
2021/08/20 00:37:30;;;;;;;4.87;3.07;;;27.90;99.90;;;;;;5001031;28;20297;-91
2021/08/20 00:40:03;;;;;;;6.60;3.40;;;28.10;99.90;;;;;;5004316;28;20198;-91
2021/08/20 00:42:37;;;;;;;4.87;3.40;;;28.10;99.90;;;;;;5004122;28;20190;-92
2021/08/20 00:45:09;;;;;;;9.03;3.27;;;28.10;99.90;;;;;;5016551;28;20193;-92
2021/08/20 00:47:41;;;;;;;3.53;2.80;;;28.10;99.90;;;;;;5017426;28;20202;-92
2021/08/20 00:50:13;;;;;;;5.37;3.13;;;27.90;99.90;;;;;;5013754;28;20206;-95
2021/08/20 00:52:44;;;;;;;4.80;3.07;;;27.80;99.90;;;;;;5011509;28;20198;-92
2021/08/20 00:55:16;;;;;;;3.40;2.70;;;27.80;99.90;;;;;;5037182;28;20431;-92
2021/08/20 00:57:49;;;;;;;4.67;3.27;;;27.70;99.90;;;;;;5037278;28;20213;-92
2021/08/20 01:00:21;;;;;;;5.70;2.90;;;27.60;99.90;;;;;;5029724;28;20220;-92
2021/08/20 01:02:53;;;;;;;5.50;3.23;;;27.70;99.90;;;;;;5023102;28;20681;-92
2021/08/20 01:05:24;;;;;;;5.43;3.40;;;27.70;99.90;;;;;;5027799;28;20204;-91
2021/08/20 01:10:54;;;;;;;5.97;3.30;;;28.10;99.90;;;;;;5033058;28;20245;-92
2021/08/20 01:13:37;;;;;;;4.27;2.67;;;28.50;99.90;;;;;;5031441;28;20181;-91
2021/08/20 01:16:21;;;;;;;5.97;3.00;;;28.70;99.90;;;;;;5032119;28;20225;-94
2021/08/20 01:18:53;;;;;;;5.23;2.57;;;28.30;99.90;;;;;;5024829;28;20202;-92
2021/08/20 01:21:25;;;;;;;4.30;2.93;;;28.60;99.90;;;;;;5020083;28;20662;-92
2021/08/20 01:23:59;;;;;;;5.37;3.30;;;28.80;99.90;;;;;;5014685;28;20193;-91
2021/08/20 01:26:35;;;;;;;6.30;2.73;;;28.80;99.90;;;;;;5035941;28;20292;-92
2021/08/20 01:29:06;;;;;;;4.63;2.70;;;29.00;99.90;;;;;;5033113;28;20205;-90
2021/08/20 01:31:38;;;;;;;4.17;3.10;;;28.80;99.90;;;;;;5013307;28;20267;-92
2021/08/20 01:34:10;;;;;;;4.77;3.17;;;28.60;99.90;;;;;;5031696;28;20252;-90
2021/08/20 01:36:55;;;;;;;3.73;2.70;;;28.80;99.90;;;;;;5008018;28;20214;-92
2021/08/20 01:39:26;;;;;;;4.10;2.90;;;28.60;99.90;;;;;;5010676;28;20218;-92
2021/08/20 01:42:02;;;;;;;6.10;3.37;;;28.10;99.90;;;;;;5013636;28;20194;-92
2021/08/20 01:44:34;;;;;;;5.77;3.90;;;27.40;99.90;;;;;;5015380;28;20217;-92
2021/08/20 01:47:06;;;;;;;13.70;8.00;;;27.00;99.90;;;;;;5011031;28;20234;-92
2021/08/20 01:49:38;;;;;;;10.03;5.80;;;26.50;99.90;;;;;;5015307;28;20203;-93
2021/08/20 01:52:11;;;;;;;7.90;3.60;;;26.40;99.90;;;;;;5016674;28;20193;-91
2021/08/20 01:54:43;;;;;;;4.83;3.70;;;26.10;99.90;;;;;;5017327;28;20249;-92
2021/08/20 01:57:17;;;;;;;3.97;3.03;;;26.00;99.90;;;;;;5020411;28;20249;-91
2021/08/20 01:59:49;;;;;;;5.93;3.73;;;25.60;99.90;;;;;;5127858;22;20207;-90
2021/08/20 02:04:48;;;;;;;6.93;3.80;;;25.10;99.90;;;;;;5055695;28;20224;-92
2021/08/20 02:07:19;;;;;;;4.93;3.53;;;25.10;99.90;;;;;;5048296;28;20232;-93
2021/08/20 02:09:51;;;;;;;8.77;3.60;;;25.00;99.90;;;;;;5048625;28;20212;-93
2021/08/20 02:12:27;;;;;;;6.57;3.57;;;24.90;99.90;;;;;;5028869;28;20286;-93
2021/08/20 02:15:00;;;;;;;4.90;3.47;;;24.80;99.90;;;;;;5050632;28;20204;-92
2021/08/20 02:17:32;;;;;;;5.87;4.07;;;24.70;99.90;;;;;;5366330;22;20248;-93
2021/08/20 02:22:40;;;;;;;6.80;3.63;;;24.50;99.90;;;;;;5013803;28;20226;-92
2021/08/20 02:28:30;;;;;;;8.07;3.53;;;24.40;99.90;;;;;;5006325;28;20276;-92
2021/08/20 02:34:04;;;;;;;7.33;3.97;;;24.10;99.90;;;;;;5003009;28;20281;-92
2021/08/20 02:36:51;;;;;;;9.07;3.50;;;24.10;99.90;;;;;;5011349;28;20198;-92
2021/08/20 02:45:15;;;;;;;4.80;3.17;;;23.60;99.90;;;;;;5008876;28;20222;-92
2021/08/20 02:47:50;;;;;;;4.77;3.13;;;23.40;99.90;;;;;;4993513;28;20231;-92
2021/08/20 02:50:21;;;;;;;5.27;3.33;;;23.30;99.90;;;;;;4991001;28;20205;-93
2021/08/20 02:52:54;;;;;;;5.67;3.70;;;23.30;99.90;;;;;;4989820;28;20215;-92
2021/08/20 02:55:30;;;;;;;4.20;3.60;;;23.10;99.90;;;;;;4974355;28;20582;-93
2021/08/20 02:58:09;;;;;;;6.90;3.50;;;23.00;99.90;;;;;;4990078;28;20211;-93
2021/08/20 03:00:52;;;;;;;6.43;3.40;;;22.90;99.90;;;;;;4993947;28;20218;-94
2021/08/20 03:03:32;;;;;;;5.30;3.50;;;22.80;99.90;;;;;;5008469;28;20204;-93
2021/08/20 03:08:49;;;;;;;7.90;3.67;;;22.70;99.90;;;;;;6008880;23;20254;-94
2021/08/20 03:11:20;;;;;;;6.07;3.67;;;22.60;99.90;;;;;;5058628;28;20215;-91
2021/08/20 03:13:52;;;;;;;5.20;3.33;;;22.50;99.90;;;;;;5056359;28;20235;-92
2021/08/20 03:27:04;;;;;;;4.60;3.40;;;22.00;99.90;;;;;;5071447;28;20718;-92
2021/08/20 03:29:37;;;;;;;10.43;3.63;;;21.90;99.90;;;;;;5073382;28;20204;-93
2021/08/20 03:32:25;;;;;;;5.87;3.63;;;21.80;99.90;;;;;;5055076;28;20204;-93
2021/08/20 03:34:58;;;;;;;6.40;3.80;;;21.70;99.90;;;;;;5071322;28;20200;-93
2021/08/20 03:37:31;;;;;;;7.43;3.47;;;21.60;99.90;;;;;;5072889;28;20204;-92
2021/08/20 03:40:17;;;;;;;8.10;3.70;;;21.60;99.90;;;;;;5055683;28;20200;-93
2021/08/20 03:42:53;;;;;;;7.50;3.30;;;21.50;99.90;;;;;;5331172;22;20255;-93
2021/08/20 03:45:29;;;;;;;7.67;3.70;;;21.50;99.90;;;;;;5051847;28;20223;-92
2021/08/20 03:48:04;;;;;;;7.00;3.67;;;21.40;99.90;;;;;;5052856;28;20227;-92
2021/08/20 04:17:25;;;;;;;7.50;3.50;;;20.70;99.90;;;;;;5059567;28;20227;-93
2021/08/20 04:19:57;;;;;;;6.87;3.63;;;20.70;99.90;;;;;;5069784;28;20204;-92
2021/08/20 04:22:29;;;;;;;7.97;3.97;;;20.60;99.90;;;;;;5063045;28;20238;-93
2021/08/20 04:25:02;;;;;;;7.40;3.93;;;20.60;99.90;;;;;;5063369;28;20213;-93
2021/08/20 04:27:34;;;;;;;6.20;3.57;;;20.70;99.90;;;;;;5048299;28;20250;-93
2021/08/20 04:30:11;;;;;;;7.40;3.20;;;20.70;99.90;;;;;;5069628;28;20223;-90
2021/08/20 04:32:44;;;;;;;7.73;3.27;;;20.70;99.90;;;;;;5064156;28;20204;-90
2021/08/20 04:35:17;;;;;;;6.53;2.97;;;20.60;99.90;;;;;;5062166;28;20660;-91
2021/08/20 04:37:49;;;;;;;7.90;3.37;;;20.70;99.90;;;;;;5069168;28;20215;-91
2021/08/20 04:40:22;;;;;;;7.53;3.90;;;20.60;99.90;;;;;;5045481;28;20212;-91
2021/08/20 04:42:53;;;;;;;8.13;3.67;;;20.60;99.90;;;;;;5060020;28;20299;-93
2021/08/20 04:45:25;;;;;;;5.00;3.20;;;20.50;99.90;;;;;;5056624;28;20216;-90
2021/08/20 04:47:58;;;;;;;8.47;3.33;;;20.40;99.90;;;;;;5057093;28;20704;-91
2021/08/20 04:50:30;;;;;;;5.83;3.43;;;20.40;99.90;;;;;;5056497;28;20235;-90
2021/08/20 04:53:03;;;;;;;6.40;3.67;;;20.30;99.90;;;;;;5059772;28;20551;-90
2021/08/20 04:55:35;;;;;;;6.57;4.03;;;20.20;99.90;;;;;;5067990;28;20221;-92
2021/08/20 04:58:08;;;;;;;7.53;3.03;;;20.20;99.90;;;;;;5067284;28;20288;-91
2021/08/20 05:00:42;;;;;;;6.97;3.47;;;20.10;99.90;;;;;;5058794;28;20232;-91
2021/08/20 05:03:17;;;;;;;8.53;3.80;;;20.00;99.90;;;;;;5056796;28;20207;-91
2021/08/20 05:05:51;;;;;;;11.17;3.80;;;20.00;99.90;;;;;;5057015;28;20275;-91
2021/08/20 05:08:23;;;;;;;6.90;3.67;;;20.00;99.90;;;;;;5057617;28;20231;-92
2021/08/20 05:10:54;;;;;;;5.80;3.63;;;20.00;99.90;;;;;;5055714;28;20227;-92
2021/08/20 05:13:25;;;;;;;6.83;3.47;;;19.90;99.90;;;;;;5056613;28;20204;-92
2021/08/20 05:15:57;;;;;;;6.43;3.70;;;19.80;99.90;;;;;;5059703;28;20216;-92
2021/08/20 05:18:32;;;;;;;8.87;3.87;;;19.80;99.90;;;;;;5070366;28;20204;-92
2021/08/20 05:21:06;;;;;;;6.30;3.13;;;19.80;99.90;;;;;;5033685;28;20422;-93
2021/08/20 05:23:51;;;;;;;7.00;3.37;;;19.70;99.90;;;;;;5050928;28;20260;-92
2021/08/20 05:26:40;;;;;;;9.80;4.17;;;19.60;99.90;;;;;;5062418;28;20196;-89
2021/08/20 05:29:20;;;;;;;7.83;3.93;;;19.50;99.90;;;;;;5069229;28;20224;-92
2021/08/20 05:31:51;;;;;;;7.13;3.10;;;19.50;99.90;;;;;;5058553;28;20314;-93
2021/08/20 05:34:27;;;;;;;4.83;2.93;;;19.40;99.90;;;;;;5042773;28;20204;-92
2021/08/20 05:37:02;;;;;;;7.73;3.40;;;19.30;99.90;;;;;;5067467;28;20299;-90
2021/08/20 05:39:33;;;;;;;7.40;3.47;;;19.20;99.90;;;;;;5066128;28;20240;-91
2021/08/20 05:42:05;;;;;;;6.87;3.50;;;19.20;99.90;;;;;;5076041;28;20188;-91
2021/08/20 05:44:42;;;;;;;6.67;3.27;;;19.10;99.90;;;;;;5084517;22;20239;-89
2021/08/20 05:47:14;;;;;;;4.77;3.00;;;19.00;99.90;;;;;;5028154;28;20311;-91
2021/08/20 05:49:48;;;;;;;4.77;2.63;;;18.90;99.90;;;;;;5037263;28;20208;-91
2021/08/20 05:52:21;;;;;;;7.77;3.30;;;18.70;99.90;;;;;;5044246;28;20672;-91
2021/08/20 05:54:52;;;;;;;11.43;3.80;;;18.50;99.90;;;;;;5019369;28;20244;-91
2021/08/20 05:57:23;;;;;;;10.47;3.70;;;18.50;99.90;;;;;;5036330;28;20278;-91
2021/08/20 06:02:45;;;;;;;8.73;4.03;;;18.20;99.90;;;;;;5043817;28;20219;-92
2021/08/20 06:05:21;;;;;;;8.93;3.80;;;18.00;99.90;;;;;;5041876;28;20216;-91
2021/08/20 06:07:55;;;;;;;10.03;3.33;;;17.90;99.90;;;;;;5023389;28;20229;-92
2021/08/20 06:10:27;;;;;;;9.27;3.57;;;17.70;99.90;;;;;;5040455;28;20547;-91
2021/08/20 06:12:59;;;;;;;8.03;3.83;;;17.60;99.90;;;;;;5042526;28;20197;-92
2021/08/20 06:15:35;;;;;;;8.17;3.33;;;17.50;99.90;;;;;;5050085;28;20755;-92
2021/08/20 06:18:07;;;;;;;8.67;3.80;;;17.40;99.90;;;;;;5049627;28;20235;-92
2021/08/20 06:20:42;;;;;;;8.70;3.27;;;17.40;99.90;;;;;;5049870;28;20229;-94
2021/08/20 06:23:14;;;;;;;7.53;3.70;;;17.30;99.90;;;;;;5054517;28;20201;-91
2021/08/20 06:25:47;;;;;;;9.43;4.20;;;17.20;99.90;;;;;;5050724;28;20228;-92
2021/08/20 06:28:20;;;;;;;11.13;4.03;;;17.10;99.90;;;;;;5051328;28;20271;-93
2021/08/20 06:30:52;;;;;;;8.80;3.80;;;17.00;99.90;;;;;;5053618;28;20265;-92
2021/08/20 06:33:28;;;;;;;7.17;3.53;;;17.00;99.90;;;;;;5049790;28;20235;-92
2021/08/20 06:36:03;;;;;;;7.43;3.50;;;17.00;99.90;;;;;;5047441;28;20201;-92
2021/08/20 06:38:37;;;;;;;11.20;3.90;;;16.80;99.90;;;;;;5026935;28;20296;-92
2021/08/20 06:41:09;;;;;;;9.50;3.60;;;16.90;99.90;;;;;;5042535;28;20217;-93
2021/08/20 06:43:41;;;;;;;10.03;3.70;;;16.90;99.90;;;;;;5044649;28;20208;-91
2021/08/20 06:46:13;;;;;;;8.97;3.40;;;16.80;99.90;;;;;;5043083;28;20356;-92
2021/08/20 06:48:45;;;;;;;8.20;4.00;;;16.70;99.90;;;;;;5044071;28;20409;-91
2021/08/20 06:51:26;;;;;;;7.53;3.57;;;16.60;99.90;;;;;;5031129;28;20220;-90
2021/08/20 06:54:02;;;;;;;8.70;3.67;;;16.60;99.90;;;;;;5052204;28;20204;-91
2021/08/20 06:56:34;;;;;;;7.63;3.27;;;16.50;99.90;;;;;;5053720;28;20217;-92
2021/08/20 06:59:06;;;;;;;10.87;3.63;;;16.40;99.90;;;;;;5052229;28;20209;-91
2021/08/20 07:01:39;;;;;;;6.80;3.23;;;16.40;99.90;;;;;;5046828;28;20312;-93
2021/08/20 07:04:12;;;;;;;5.83;2.90;;;16.30;99.90;;;;;;5049744;28;20240;-92
2021/08/20 07:06:45;;;;;;;8.70;3.37;;;16.20;99.90;;;;;;5033644;28;20220;-92
2021/08/20 07:09:20;;;;;;;6.70;3.33;;;16.20;99.90;;;;;;5034689;28;20237;-92
2021/08/20 07:11:51;;;;;;;8.17;2.80;;;16.20;99.90;;;;;;5035544;28;20209;-92
2021/08/20 07:14:24;;;;;;;7.77;2.90;;;16.10;99.90;;;;;;5037158;28;20224;-92
2021/08/20 07:16:58;;;;;;;6.23;3.30;;;16.10;99.90;;;;;;5046369;28;20201;-91
2021/08/20 07:19:33;;;;;;;6.87;3.47;;;16.10;99.90;;;;;;5016558;28;20205;-92
2021/08/20 07:22:09;;;;;;;9.07;3.53;;;16.00;99.90;;;;;;5034786;28;20247;-92
2021/08/20 07:24:46;;;;;;;6.17;3.40;;;16.00;99.90;;;;;;5052956;28;20220;-92
2021/08/20 07:27:27;;;;;;;9.10;3.63;;;15.90;99.90;;;;;;5058423;28;20231;-92
2021/08/20 07:30:01;;;;;;;9.33;4.17;;;15.90;99.90;;;;;;5057447;28;20287;-92
2021/08/20 07:32:35;;;;;;;6.77;3.17;;;15.90;99.90;;;;;;5054103;28;20204;-92
2021/08/20 07:35:09;;;;;;;5.10;3.20;;;15.90;99.90;;;;;;5034936;28;20232;-92
2021/08/20 07:37:43;;;;;;;7.30;3.30;;;15.90;99.90;;;;;;5050443;28;20213;-92
2021/08/20 07:40:14;;;;;;;9.17;3.90;;;15.90;99.90;;;;;;5040018;28;20319;-91
2021/08/20 07:42:46;;;;;;;6.23;3.50;;;15.80;99.90;;;;;;5039416;28;20200;-91
2021/08/20 07:45:19;;;;;;;8.03;4.03;;;15.80;99.90;;;;;;5034728;28;20272;-91
2021/08/20 07:47:52;;;;;;;7.03;3.20;;;15.70;99.90;;;;;;5018970;28;20210;-92
2021/08/20 07:50:25;;;;;;;8.13;3.80;;;15.50;99.90;;;;;;5022112;28;20237;-92
2021/08/20 07:52:58;;;;;;;9.27;3.60;;;15.50;99.90;;;;;;5020826;28;20300;-91
2021/08/20 07:55:30;;;;;;;7.17;3.30;;;15.50;99.90;;;;;;5022260;28;20212;-92
2021/08/20 07:58:02;;;;;;;7.10;3.70;;;15.50;99.90;;;;;;5021235;28;20229;-92
2021/08/20 08:00:34;;;;;;;9.50;4.17;;;15.50;99.90;;;;;;5022340;28;20266;-92
2021/08/20 08:03:07;;;;;;;9.67;4.17;;;15.60;99.90;;;;;;5036708;28;20209;-92
2021/08/20 08:05:45;;;;;;;8.20;3.93;;;15.50;99.90;;;;;;5037815;28;20212;-91
2021/08/20 08:08:20;;;;;;;10.67;4.07;;;15.50;99.90;;;;;;5031487;28;20281;-92
2021/08/20 08:10:53;;;;;;;9.63;4.43;;;15.60;99.90;;;;;;5046834;28;20208;-91
2021/08/20 08:13:24;;;;;;;9.77;4.50;;;15.60;99.90;;;;;;5027816;28;20205;-91
2021/08/20 08:15:56;;;;;;;9.00;4.50;;;15.60;99.90;;;;;;5040628;28;20291;-91
2021/08/20 08:18:28;;;;;;;9.23;4.20;;;15.70;99.90;;;;;;5042009;28;20215;-91
2021/08/20 08:20:59;;;;;;;8.47;4.10;;;15.70;99.90;;;;;;5038269;28;20653;-90
2021/08/20 08:23:33;;;;;;;9.53;3.93;;;15.60;99.90;;;;;;5037761;28;20220;-91
2021/08/20 08:26:07;;;;;;;7.67;4.00;;;15.70;99.90;;;;;;5038961;28;20204;-91
2021/08/20 08:28:39;;;;;;;8.13;4.17;;;15.70;99.90;;;;;;5038422;28;20565;-91
2021/08/20 08:31:10;;;;;;;9.77;4.37;;;15.70;99.90;;;;;;5038194;28;20666;-91
2021/08/20 08:33:43;;;;;;;7.77;3.87;;;15.80;99.90;;;;;;5038099;28;20213;-91
2021/08/20 08:36:15;;;;;;;8.77;4.00;;;15.80;99.90;;;;;;5039470;28;20236;-90
2021/08/20 08:38:49;;;;;;;8.70;3.90;;;15.80;99.90;;;;;;5037483;28;20223;-91
2021/08/20 08:41:21;;;;;;;6.07;3.80;;;15.70;99.90;;;;;;5021485;28;20212;-91
2021/08/20 08:43:52;;;;;;;6.83;4.20;;;15.80;99.90;;;;;;5037105;28;20275;-91
2021/08/20 08:46:25;;;;;;;6.87;3.80;;;15.70;99.90;;;;;;5025054;28;20225;-91
2021/08/20 08:48:58;;;;;;;7.30;4.23;;;15.60;99.90;;;;;;5020292;28;20205;-90
2021/08/20 08:51:30;;;;;;;6.47;4.20;;;15.60;99.90;;;;;;5017068;28;20301;-91
2021/08/20 08:54:05;;;;;;;7.27;3.70;;;15.60;99.90;;;;;;5017248;28;20292;-90
2021/08/20 08:56:38;;;;;;;5.87;3.80;;;15.60;99.90;;;;;;5020874;28;20208;-91
2021/08/20 08:59:09;;;;;;;8.67;4.53;;;15.50;99.90;;;;;;5037093;28;20220;-90
2021/08/20 09:01:42;;;;;;;8.20;4.50;;;15.60;99.90;;;;;;5035802;28;20216;-90
2021/08/20 09:04:16;;;;;;;7.13;4.20;;;15.70;99.90;;;;;;5045463;28;20197;-91
2021/08/20 09:06:50;;;;;;;8.57;4.50;;;15.60;99.90;;;;;;5054086;28;20299;-91
2021/08/20 09:09:25;;;;;;;5.87;4.63;;;15.50;99.90;;;;;;5051844;28;20239;-91
2021/08/20 09:11:58;;;;;;;7.10;3.93;;;15.50;99.90;;;;;;5048883;28;20632;-90
2021/08/20 09:14:32;;;;;;;7.63;4.03;;;15.50;99.90;;;;;;5047060;28;20296;-91
2021/08/20 09:17:04;;;;;;;9.23;4.00;;;15.40;99.90;;;;;;5038260;28;20213;-91
2021/08/20 09:19:39;;;;;;;7.13;3.93;;;15.40;99.90;;;;;;5021901;28;20211;-91
2021/08/20 09:22:13;;;;;;;6.70;3.40;;;15.50;99.90;;;;;;5018184;28;20206;-91
2021/08/20 09:24:47;;;;;;;7.50;3.77;;;15.40;99.90;;;;;;5017082;28;20608;-91
2021/08/20 09:27:24;;;;;;;8.43;4.13;;;15.30;99.90;;;;;;5018207;28;20564;-91
2021/08/20 09:30:01;;;;;;;5.63;3.60;;;15.40;99.90;;;;;;5016863;28;20233;-91
2021/08/20 09:32:33;;;;;;;8.57;3.80;;;15.40;99.90;;;;;;5016400;28;20201;-91
2021/08/20 09:35:07;;;;;;;6.93;4.13;;;15.20;99.90;;;;;;5017096;28;20209;-91
2021/08/20 09:37:39;;;;;;;8.27;3.90;;;15.20;99.90;;;;;;5017369;28;20681;-90
2021/08/20 09:40:16;;;;;;;6.40;3.47;;;15.20;99.90;;;;;;5017192;28;20231;-91
2021/08/20 09:42:48;;;;;;;4.30;3.37;;;15.30;99.90;;;;;;5017052;28;20221;-90
2021/08/20 09:45:22;;;;;;;7.73;4.03;;;15.40;99.90;;;;;;5004370;28;20252;-91
2021/08/20 09:47:55;;;;;;;5.03;3.90;;;15.30;99.90;;;;;;5036418;28;20197;-91
2021/08/20 09:50:43;;;;;;;7.80;4.30;;;15.20;99.90;;;;;;5035148;28;20247;-91
2021/08/20 09:53:17;;;;;;;8.47;4.70;;;15.20;99.90;;;;;;5036872;28;20209;-91
2021/08/20 09:55:52;;;;;;;9.57;4.13;;;15.20;99.90;;;;;;5036260;28;20205;-90
2021/08/20 09:58:24;;;;;;;9.43;4.30;;;15.20;99.90;;;;;;5036270;28;20219;-91
2021/08/20 10:00:59;;;;;;;8.07;4.00;;;15.20;99.90;;;;;;5036182;28;20653;-91
2021/08/20 10:03:35;;;;;;;6.27;4.23;;;15.20;99.90;;;;;;5019269;28;20280;-90
2021/08/20 10:06:07;;;;;;;5.57;4.07;;;15.20;99.90;;;;;;5037137;28;20270;-91
2021/08/20 10:08:41;;;;;;;7.73;4.27;;;15.30;99.90;;;;;;5036080;28;20208;-91
2021/08/20 10:11:18;;;;;;;8.03;4.97;;;15.40;99.90;;;;;;5037012;28;20229;-91
2021/08/20 10:13:51;;;;;;;6.53;3.90;;;15.40;99.90;;;;;;5040477;28;20205;-91
2021/08/20 10:16:23;;;;;;;5.13;3.70;;;15.40;99.90;;;;;;5056191;28;20303;-90
2021/08/20 10:18:57;;;;;;;8.30;4.50;;;15.10;99.90;;;;;;5044997;28;20212;-91
2021/08/20 10:21:31;;;;;;;7.20;4.30;;;15.10;99.90;;;;;;5042155;28;20211;-90
2021/08/20 10:24:04;;;;;;;6.60;4.33;;;15.20;99.90;;;;;;5060009;28;20208;-91
2021/08/20 10:26:42;;;;;;;9.10;4.67;;;15.30;99.90;;;;;;5060224;28;20207;-91
2021/08/20 10:29:14;;;;;;;5.17;3.80;;;15.30;99.90;;;;;;5034163;28;20243;-91
2021/08/20 10:31:47;;;;;;;7.87;3.90;;;15.30;99.90;;;;;;5023657;28;20225;-91
2021/08/20 10:34:42;;;;;;;8.10;4.07;;;15.30;99.90;;;;;;5020144;28;20214;-92
2021/08/20 10:37:16;;;;;;;6.77;3.37;;;15.50;99.90;;;;;;5010460;28;20214;-90
2021/08/20 10:39:49;;;;;;;9.00;4.07;;;15.40;99.90;;;;;;5019788;28;20202;-91
2021/08/20 10:42:25;;;;;;;7.47;4.03;;;15.30;99.90;;;;;;5018206;28;20618;-91
2021/08/20 10:45:06;;;;;;;7.77;4.20;;;15.30;99.90;;;;;;5022828;28;20247;-90
2021/08/20 10:47:38;;;;;;;7.20;3.90;;;15.40;99.90;;;;;;5039614;28;20212;-91
2021/08/20 10:50:13;;;;;;;7.13;3.97;;;15.50;99.90;;;;;;5038668;28;20232;-93
2021/08/20 10:52:45;;;;;;;6.13;3.50;;;15.40;99.90;;;;;;5040067;28;20216;-90
2021/08/20 10:55:22;;;;;;;7.47;4.20;;;15.50;99.90;;;;;;5039605;28;20209;-90
2021/08/20 10:58:14;;;;;;;5.00;3.60;;;15.50;99.90;;;;;;5039989;28;20212;-90
2021/08/20 11:00:56;;;;;;;5.80;3.60;;;15.30;99.90;;;;;;5018128;28;20212;-91
2021/08/20 11:03:49;;;;;;;12.80;3.73;;;15.30;99.90;;;;;;5019743;28;20263;-91
2021/08/20 11:06:55;;;;;;;5.67;3.10;;;15.30;99.90;;;;;;5024612;28;20210;-91
2021/08/20 11:09:34;;;;;;;4.97;3.20;;;15.30;99.90;;;;;;5008382;28;20717;-91
2021/08/20 11:12:06;;;;;;;5.97;3.67;;;15.40;99.90;;;;;;5033562;28;20240;-91
2021/08/20 11:14:40;;;;;;;5.27;3.23;;;15.40;99.90;;;;;;5039328;28;20197;-91
2021/08/20 11:17:13;;;;;;;6.60;3.40;;;15.40;99.90;;;;;;5039873;28;20209;-91
2021/08/20 11:20:07;;;;;;;5.63;3.33;;;15.40;99.90;;;;;;5022426;28;20215;-91
2021/08/20 11:22:39;;;;;;;5.23;2.97;;;15.40;99.90;;;;;;5037314;28;20213;-91
2021/08/20 11:25:23;;;;;;;5.03;2.87;;;15.50;99.90;;;;;;5021368;28;20256;-91
2021/08/20 11:30:29;;;;;;;8.37;3.10;;;15.40;99.90;;;;;;4997366;28;20222;-91
2021/08/20 11:33:12;;;;;;;6.67;2.90;;;15.30;99.90;;;;;;5006578;28;20217;-91
2021/08/20 11:35:43;;;;;;;6.50;3.07;;;15.30;99.90;;;;;;4999403;28;20249;-90
2021/08/20 11:38:29;;;;;;;6.50;2.97;;;15.30;99.90;;;;;;4981888;28;20297;-91
2021/08/20 11:41:09;;;;;;;6.67;2.67;;;15.40;99.90;;;;;;5000252;28;20293;-90
2021/08/20 11:43:57;;;;;;;6.50;2.43;;;15.40;99.90;;;;;;4999760;28;20210;-89
2021/08/20 11:46:34;;;;;;;4.10;2.70;;;15.50;99.90;;;;;;5003046;28;20237;-90
2021/08/20 11:49:06;;;;;;;6.07;2.30;;;15.40;99.90;;;;;;4999167;28;20202;-90
2021/08/20 11:51:39;;;;;;;8.73;2.80;;;15.50;99.90;;;;;;4997874;28;20260;-90
2021/08/20 11:54:12;;;;;;;8.50;2.60;;;15.40;99.90;;;;;;4998732;28;20206;-90
2021/08/20 11:56:53;;;;;;;5.27;2.50;;;15.50;99.90;;;;;;4999649;28;20678;-90
2021/08/20 11:59:25;;;;;;;4.53;2.40;;;15.40;99.90;;;;;;4999392;28;20309;-90
2021/08/20 12:01:58;;;;;;;5.50;2.47;;;15.40;99.90;;;;;;4998098;28;20238;-91
2021/08/20 12:04:38;;;;;;;4.20;2.30;;;15.30;99.90;;;;;;5028520;22;20210;-89
2021/08/20 12:07:12;;;;;;;3.73;2.33;;;15.20;99.90;;;;;;4961508;29;20229;-91
2021/08/20 12:09:45;;;;;;;5.27;2.37;;;15.30;99.90;;;;;;4960839;29;20266;-89
2021/08/20 12:12:16;;;;;;;5.07;2.40;;;15.20;99.90;;;;;;4949329;29;20223;-91
2021/08/20 12:14:58;;;;;;;4.17;2.13;;;15.20;99.90;;;;;;4972124;29;20214;-87
2021/08/20 12:17:32;;;;;;;4.23;2.50;;;15.20;99.90;;;;;;4955976;28;20208;-90
2021/08/20 12:20:17;;;;;;;3.50;2.10;;;15.20;99.90;;;;;;4965231;28;20278;-90
2021/08/20 12:22:51;;;;;;;3.53;2.03;;;15.30;99.90;;;;;;4947553;29;20231;-90
2021/08/20 12:25:24;;;;;;;5.53;2.30;;;15.30;99.90;;;;;;5050619;23;20243;-91
2021/08/20 12:27:56;;;;;;;7.07;2.27;;;15.30;99.90;;;;;;5066085;28;20246;-90
2021/08/20 12:30:28;;;;;;;5.00;2.27;;;15.30;99.90;;;;;;5073840;28;20204;-92
2021/08/20 12:33:02;;;;;;;4.60;2.00;;;15.20;99.90;;;;;;5060736;28;20220;-91
2021/08/20 12:35:34;;;;;;;5.03;2.10;;;15.20;99.90;;;;;;5077404;28;20259;-91
2021/08/20 12:38:08;;;;;;;6.90;2.30;;;15.20;99.90;;;;;;5043915;28;20202;-90
2021/08/20 12:40:42;;;;;;;4.93;2.37;;;15.20;99.90;;;;;;5075453;28;20191;-90
2021/08/20 12:43:29;;;;;;;3.40;1.90;;;15.20;99.90;;;;;;5069817;28;20273;-90
2021/08/20 12:46:09;;;;;;;3.67;1.90;;;15.10;99.90;;;;;;5076398;28;20256;-90
2021/08/20 12:48:44;;;;;;;5.07;2.40;;;15.20;99.90;;;;;;5132139;22;20233;-92
2021/08/20 12:51:16;;;;;;;4.50;2.20;;;15.10;99.90;;;;;;5012923;28;20225;-91
2021/08/20 12:53:47;;;;;;;5.87;2.63;;;15.10;99.90;;;;;;5025643;28;20226;-91
2021/08/20 12:56:33;;;;;;;4.77;2.50;;;15.10;99.90;;;;;;5019731;28;20654;-92
2021/08/20 12:59:07;;;;;;;5.90;2.60;;;15.20;99.90;;;;;;5018845;28;20229;-91
2021/08/20 13:01:39;;;;;;;5.97;2.30;;;15.20;99.90;;;;;;5018003;28;20237;-92
2021/08/20 13:04:13;;;;;;;3.80;2.20;;;15.10;99.90;;;;;;5004518;28;20265;-90
2021/08/20 13:06:44;;;;;;;5.00;2.33;;;15.00;99.90;;;;;;4992410;28;20685;-91
2021/08/20 13:09:15;;;;;;;3.17;1.90;;;14.90;99.90;;;;;;5028031;28;20248;-90
2021/08/20 13:11:53;;;;;;;5.70;2.30;;;15.00;99.90;;;;;;5011892;28;20336;-92
2021/08/20 13:14:24;;;;;;;5.13;2.67;;;15.00;99.90;;;;;;5001218;28;20237;-92
2021/08/20 13:16:56;;;;;;;4.03;2.30;;;15.00;99.90;;;;;;5018791;28;20341;-91
2021/08/20 13:19:29;;;;;;;3.13;2.20;;;14.90;99.90;;;;;;5019589;28;20214;-91
2021/08/20 13:22:03;;;;;;;3.67;1.93;;;15.00;99.90;;;;;;5023134;28;20680;-90
2021/08/20 13:24:34;;;;;;;4.50;2.50;;;15.00;99.90;;;;;;5021774;28;20662;-90
2021/08/20 13:27:07;;;;;;;7.77;2.47;;;15.20;99.90;;;;;;5016899;28;20229;-90
2021/08/20 13:29:38;;;;;;;5.37;2.20;;;15.00;99.90;;;;;;5016796;28;20296;-90
2021/08/20 13:32:10;;;;;;;6.87;2.30;;;14.90;99.90;;;;;;5015714;28;20253;-90
2021/08/20 13:34:43;;;;;;;2.67;2.00;;;14.90;99.90;;;;;;5016730;28;20201;-90
2021/08/20 13:37:15;;;;;;;3.93;2.00;;;14.90;99.90;;;;;;5016880;28;20244;-90
2021/08/20 13:39:46;;;;;;;6.23;2.50;;;14.90;99.90;;;;;;5016347;28;20214;-90
2021/08/20 13:42:17;;;;;;;6.33;2.70;;;14.90;99.90;;;;;;5016076;28;20265;-90
2021/08/20 13:44:49;;;;;;;4.07;2.57;;;15.00;99.90;;;;;;5016160;28;20304;-90
2021/08/20 13:47:20;;;;;;;10.17;2.70;;;15.00;99.90;;;;;;5022083;28;20274;-90
2021/08/20 13:49:54;;;;;;;3.83;2.50;;;15.00;99.90;;;;;;5040690;28;20287;-90
2021/08/20 13:52:26;;;;;;;5.27;2.60;;;15.10;99.90;;;;;;5040467;28;20311;-90
2021/08/20 13:54:58;;;;;;;5.53;2.77;;;15.00;99.90;;;;;;5035845;28;20225;-90
2021/08/20 13:57:29;;;;;;;5.03;3.10;;;15.00;99.90;;;;;;5020073;28;20218;-90
2021/08/20 14:00:02;;;;;;;4.40;2.70;;;15.10;99.90;;;;;;5022390;28;20215;-91
2021/08/20 14:02:34;;;;;;;5.30;2.60;;;15.10;99.90;;;;;;5019773;28;20213;-91
2021/08/20 14:05:09;;;;;;;2.47;2.10;;;15.00;99.90;;;;;;5002438;28;20213;-91
2021/08/20 14:07:40;;;;;;;4.67;3.00;;;15.00;99.90;;;;;;5019828;28;20259;-91
2021/08/20 14:10:12;;;;;;;5.13;2.50;;;15.10;99.90;;;;;;5032304;23;20653;-94
2021/08/20 14:12:43;;;;;;;4.03;2.50;;;15.10;99.90;;;;;;5020232;28;20229;-91
2021/08/20 14:15:15;;;;;;;3.17;2.37;;;15.10;99.90;;;;;;5020047;28;20229;-91
2021/08/20 14:17:46;;;;;;;4.87;2.80;;;15.10;99.90;;;;;;5020518;28;20229;-91
2021/08/20 14:20:20;;;;;;;2.97;2.13;;;15.10;99.90;;;;;;5019995;28;20190;-93
2021/08/20 14:22:52;;;;;;;5.57;2.43;;;15.20;99.90;;;;;;5019832;28;20205;-91
2021/08/20 14:25:25;;;;;;;5.60;2.30;;;15.30;99.90;;;;;;5020358;28;20217;-91
2021/08/20 14:27:56;;;;;;;3.40;2.23;;;15.30;99.90;;;;;;5019994;28;20276;-91
2021/08/20 14:30:28;;;;;;;4.30;2.33;;;15.30;99.90;;;;;;5018897;28;20284;-91